Felipe Meneses

Scout - Huachipato
29 Okt 2028
Sonntag
Verarbeitung

Persönlichkeit

Anpassungsfähigkeit (15) Ehrgeiz (19) Kontroverse (18) Loyalität (4) Druck (14) Professionalität (9) Fairness (17) Temperament (1)

Profil

Trainerstil Demokratisch
Lizenz Kontinentale Pro
Entschlossenheit 8
Menschenführung 11
Motivation 11
Disziplin 12
Arbeitszufriedenheit
100%
Ermüdung
0%
Rolle Scout
Gehalt 40.6K p/W
Vertrag 14.03.2030

Leistung

Verhalten Gut
Trainingseffektivität
26%
Spielerentwicklung
20%
Verletzungsprävention
60%
Taktische Umsetzung
25%

Letzte Ereignisse

Spieler begutachtet jetzt
Nahm an einer Scouting-Besprechung teil jetzt
Spieler begutachtet jetzt
Nahm an einer Scouting-Besprechung teil 7T her
Spieler begutachtet 7T her
Spieler begutachtet 7T her
Spieler begutachtet 7T her
Spieler begutachtet 14T her

Aktuell beobachtet

114
Spieler Verein Status Fähigkeit Vertrauen Beobachtet Zuletzt beobachtet Letzte Stimme
Aaron Branca Artigas Aktiv 82 / 89 40% 4 28.10.2028 -
Ivan Borges Defensores Aktiv 91 / 92 40% 3 28.10.2028 -
Mateo Caballero Defensor Sporting Aktiv 98 / 99 40% 4 27.10.2028 -
Joel Ezra Enyimba Aktiv 98 / 98 40% 5 24.10.2028 -
Tiago Rodríguez Central Norte Aktiv 72 / 77 40% 7 24.10.2028 -
Estanislao López Colón Aktiv 93 / 99 40% 3 23.10.2028 -
Gustavo Vázquez Sumgayit Aktiv 84 / 89 40% 1 23.10.2028 -
Francisco Machis Llaneros Aktiv 78 / 85 40% 3 22.10.2028 -
Benito Paklayan Alvarado Aktiv 87 / 92 40% 2 18.10.2028 -
Felipe Pujol Vélez Aktiv 116 / 122 40% 3 18.10.2028 -
Aytor Herrera Mineros de Guayana Aktiv 90 / 95 40% 2 17.10.2028 -
Gideon Manaseh Ikorodu City Aktiv 96 / 104 40% 1 17.10.2028 -
Cayden Cole Bidco United Aktiv 59 / 62 40% 1 14.10.2028 -
Celías Ingenthron Platense Aktiv 114 / 126 40% 3 12.10.2028 -
Matias Siltanen Malmo FF Aktiv 120 / 133 40% 2 12.10.2028 -
Lautaro Dufur Juventud Aktiv 102 / 110 40% 4 10.10.2028 -
Matías Magdaleno Estudiantes Aktiv 109 / 116 40% 2 09.10.2028 -
Luis Otávio Orlando City Aktiv 131 / 110 40% 3 09.10.2028 -
Buba Sangaré Elche Aktiv 147 / 147 40% 2 08.10.2028 -
Agustín Medina Lanús Aktiv 120 / 130 40% 2 07.10.2028 -
Giovanni Leoni Lincoln City Aktiv 150 / 148 40% 1 07.10.2028 -
Germán Barbas Racing Santander Aktiv 118 / 114 40% 1 06.10.2028 -
Andres Casseres Llaneros Aktiv 84 / 74 40% 1 06.10.2028 -
Roberto Medina La Equidad Aktiv 101 / 103 40% 6 03.10.2028 -
Davinchi Getafe Aktiv 134 / 139 40% 1 03.10.2028 -
Lucas Camejo River Plate Aktiv 86 / 93 40% 4 02.10.2028 -
Mohammed Habib Sarwari Kariobangi Sharks Aktiv 66 / 92 40% 2 28.09.2028 -
Sebastian Rodriguez Houston Dynamo Aktiv 123 / 112 40% 1 28.09.2028 -
Jean Carlos Meneses Universitario Popayan Aktiv 81 / 76 40% 3 27.09.2028 -
Matías Satas Grimsby Town Aktiv 120 / 106 40% 1 26.09.2028 -
Máximo Munarriz San Telmo Aktiv 110 / 110 40% 1 24.09.2028 -
Felipe Obradovich Ferro Carril Oeste Aktiv 115 / 109 40% 1 20.09.2028 -
Anderson Acevedo Bogota Aktiv 90 / 91 40% 2 18.09.2028 -
Mateo Faure BATE Aktiv 95 / 92 40% 2 18.09.2028 -
Samuel Molano Patriotas Aktiv 88 / 94 40% 2 16.09.2028 -
Peyton Miller New England Revolution Aktiv 119 / 117 40% 1 16.09.2028 -
Santiago Espíndola River Plate Aktiv 103 / 123 40% 1 15.09.2028 -
Martín Jiménez Iquique Aktiv 95 / 109 40% 3 13.09.2028 -
Pablo Alcoba Albion Aktiv 72 / 96 40% 1 10.09.2028 -
Axel Tape Bayer Leverkusen Aktiv 127 / 146 40% 1 09.09.2028 -
Luca Campagnaro Colón Aktiv 85 / 92 40% 1 07.09.2028 -
Hosea Michael Remo Stars Aktiv 88 / 83 40% 2 06.09.2028 -
Juan Camilo Córdoba Deportivo Pereira Aktiv 102 / 106 40% 1 01.09.2028 -
Jorge Salinas Racing Santander Aktiv 133 / 129 40% 1 30.08.2028 -
Thijs Kraaijeveld USM Alger Aktiv 115 / 139 40% 2 29.08.2028 -
Tobías Andrada River Plate Aktiv 109 / 129 40% 1 24.08.2028 -
Abubakar Adams Aduana Stars Aktiv 97 / 107 40% 1 23.08.2028 -
Samuel Córdoba Depor Aktiv 96 / 85 40% 1 23.08.2028 -
Tobías Ramírez River Plate Aktiv 135 / 129 40% 1 22.08.2028 -
Darwin Pérez Metropolitanos Aktiv 88 / 94 40% 1 19.08.2028 -
Francisco Arias Gimnasia y Esgrima Aktiv 98 / 105 40% 1 19.08.2028 -
Tiago Gordillo San Miguel Aktiv 81 / 104 40% 1 18.08.2028 -
Kwesi Sorotu Badori Berekum Chelsea Aktiv 93 / 94 40% 3 17.08.2028 -
Federico Matarán Giana Erminio Aktiv 91 / 119 40% 2 13.08.2028 -
Augusto Bando Ascoli Aktiv 122 / 134 40% 1 13.08.2028 -
Luciano Posadas Central Córdoba SdE Aktiv 103 / 106 40% 2 12.08.2028 -
Diego Vargas Universidad de Concepcion Aktiv 107 / 90 40% 1 12.08.2028 -
Nicolò Moranduzzo Renate Aktiv 112 / 104 40% 1 07.08.2028 -
Martim Cunha Porto Aktiv 96 / 111 40% 1 07.08.2028 -
Riquelme Thompson-Jones Accrington Stanley Aktiv 113 / 128 40% 2 31.05.2028 -
Khama Mabunda Platinum Stars Aktiv 63 / 82 40% 1 31.05.2028 -
Jan Bürger Northampton Town Aktiv 113 / 116 40% 2 30.05.2028 -
Konta Ismaily Aktiv 111 / 94 40% 2 26.05.2028 -
Jorthy Mokio ADO Den Haag Aktiv 121 / 143 40% 2 26.05.2028 -
Daniel Banjaqui Benfica Aktiv 111 / 126 40% 1 25.05.2028 -
Olivier Leroux Mouscron Aktiv 118 / 102 40% 1 20.05.2028 -
Musa Danjuma Umraniyespor Aktiv 114 / 99 40% 2 19.05.2028 -
Simone Suppa Virtus Verona Aktiv 99 / 86 40% 1 17.05.2028 -
Bernardo Lima Porto Aktiv 123 / 130 40% 2 12.05.2028 -
Tyler Fletcher Rotherham United Aktiv 98 / 118 40% 2 11.05.2028 -
Andrija Bulatović Chamois Niortais Aktiv 129 / 142 40% 1 11.05.2028 -
Kamaldeen Atiemo Wa All Stars Aktiv 108 / 103 40% 1 10.05.2028 -
Kelian Le Pironnec Mirandés Aktiv 97 / 105 40% 1 09.05.2028 -
Hervin Goyes Deportivo Pasto Aktiv 117 / 107 40% 1 09.05.2028 -
Ethan Williams Peterborough United Aktiv 117 / 130 40% 5 28.05.2027 -
Nana Nuhu WAFA Aktiv 103 / 96 40% 2 28.05.2027 -
Calum Agius Crewe Alexandra Aktiv 87 / 102 40% 7 24.05.2027 -
Ishmael Addo Heart of Lions Aktiv 92 / 88 40% 3 24.05.2027 -
Lander Astiazarán Real Sociedad Aktiv 105 / 104 40% 4 21.05.2027 -
Mateus Mané Burnley Aktiv 147 / 138 40% 1 19.05.2027 -
Alex Verón Vélez Aktiv 115 / 116 40% 1 18.05.2027 -
Othmane Maamma Watford Aktiv 118 / 117 40% 5 17.05.2027 -
Monty Batlhabane Polokwane City Aktiv 95 / 107 40% 3 17.05.2027 -
Zane Albarus Shrewsbury Town Aktiv 86 / 89 40% 5 13.05.2027 -
Tomás Abdelnur Santos Laguna Aktiv 95 / 112 40% 3 08.05.2027 -
Leo Castledine Middlesbrough Aktiv 121 / 133 40% 2 07.05.2027 -
Oscar Schwartau Norwich City Aktiv 136 / 129 40% 2 03.05.2027 -
Gomolemo Kekana Maritzburg United Aktiv 89 / 106 40% 3 01.05.2027 -
Eliás Montiel Borussia Dortmund Aktiv 117 / 140 40% 2 29.04.2027 -
Caleb Yirenkyi Coventry City Aktiv 121 / 133 40% 1 26.04.2027 -
João Abreu Porto Aktiv 108 / 114 40% 2 22.04.2027 -
Luke Baartman Ajax Cape Town Aktiv 117 / 120 40% 2 20.04.2027 -
Daniel Awuni Aduana Stars Aktiv 79 / 103 40% 4 18.04.2027 -
Lucas Ferreira Shakhtar Aktiv 105 / 127 40% 3 17.04.2027 -
Marcos Arias Metalurh Zaporizhzhia Aktiv 82 / 84 40% 1 09.04.2027 -
Zack Nelson Ternana Aktiv 90 / 117 40% 3 04.04.2027 -
James Dornelly Peterborough United Aktiv 118 / 118 40% 2 04.04.2027 -
Veljko Radosavljević Cukaricki Aktiv 90 / 107 40% 1 07.03.2027 -
Romelle Donovan Brentford Aktiv 129 / 137 40% 1 02.03.2027 -
Robert FC Copenhagen Aktiv 134 / 129 40% 2 01.03.2027 -
Martin Gjorgievski Zbrojovka Brno Aktiv 104 / 130 40% 1 18.02.2027 -
Gabriele Bertolini Vicenza Aktiv 108 / 112 40% 1 15.02.2027 -
Rocco Vata Watford Aktiv 126 / 116 40% 3 02.02.2027 -
Jon Eceizabarrena Real Sociedad Aktiv 83 / 89 40% 1 25.01.2027 -
Lautaro Ríos Banfield Aktiv 131 / 125 40% 1 30.11.2026 -
Thomas Carrique Andorra Aktiv 108 / 102 40% 1 06.11.2026 -
James Morris Leyton Orient Aktiv 132 / 106 40% 1 03.11.2026 -
Tomáš Nemčík Rosenborg Aktiv 138 / 139 40% 1 03.11.2026 -
Valentino Huertas Morón Aktiv 81 / 106 40% 1 17.10.2026 -
Facundo Miño Deportivo Riestra Aktiv 123 / 122 40% 1 07.09.2026 -
Eduardo Delmás Olimpia Aktiv 81 / 96 40% 1 04.08.2026 -
Carlos Arrúa Guarani Aktiv 110 / 105 40% 1 03.08.2026 -
Demián Troya Platense Aktiv 93 / 105 40% 1 03.08.2026 -
Bruno Hernández Cerro Largo Aktiv 87 / 94 40% 1 03.08.2026 -